createdAt,value
2022-07-25T00:01:42.298Z,65.41
2022-07-25T00:04:12.916Z,66.99
2022-07-25T00:06:44.245Z,68.32
2022-07-25T00:09:13.380Z,64.47
2022-07-25T00:11:42.467Z,65.88
2022-07-25T00:14:11.754Z,62.79
2022-07-25T00:16:41.025Z,64.89
2022-07-25T00:19:10.412Z,61.80
2022-07-25T00:21:39.430Z,64.09
2022-07-25T00:24:09.150Z,72.31
2022-07-25T00:26:40.471Z,69.53
2022-07-25T00:29:09.914Z,67.71
2022-07-25T00:31:39.593Z,63.95
2022-07-25T00:34:08.879Z,67.50
2022-07-25T00:36:38.447Z,71.33
2022-07-25T00:39:07.817Z,67.02
2022-07-25T00:41:37.227Z,70.75
2022-07-25T00:44:06.920Z,68.76
2022-07-25T00:46:40.450Z,69.90
2022-07-25T00:49:11.422Z,70.88
2022-07-25T00:51:40.907Z,65.97
2022-07-25T00:54:11.648Z,65.74
2022-07-25T00:56:41.600Z,67.56
2022-07-25T00:59:11.745Z,67.51
2022-07-25T01:01:41.530Z,68.68
2022-07-25T01:04:10.894Z,70.72
2022-07-25T01:06:40.222Z,71.23
2022-07-25T01:09:09.553Z,69.11
2022-07-25T01:11:39.307Z,66.95
2022-07-25T01:14:08.986Z,68.29
2022-07-25T01:16:38.475Z,68.59
2022-07-25T01:19:07.581Z,66.64
2022-07-25T01:21:40.577Z,65.79
2022-07-25T01:24:10.660Z,67.48
2022-07-25T01:26:39.987Z,70.87
2022-07-25T01:29:09.122Z,75.88
2022-07-25T01:31:38.366Z,81.62
2022-07-25T01:34:08.460Z,81.23
2022-07-25T01:36:37.752Z,85.04
2022-07-25T01:39:06.792Z,90.94
2022-07-25T01:41:36.403Z,94.60
2022-07-25T01:44:06.177Z,95.04
2022-07-25T01:46:35.486Z,90.81
2022-07-25T01:49:04.751Z,88.07
2022-07-25T01:51:34.299Z,84.58
2022-07-25T01:54:03.571Z,85.98
2022-07-25T01:56:34.832Z,90.19
2022-07-25T01:59:05.118Z,100.00
2022-07-25T02:01:34.919Z,100.00
2022-07-25T02:04:04.730Z,100.00
2022-07-25T02:06:36.047Z,95.06
2022-07-25T02:09:06.115Z,97.50
2022-07-25T02:11:35.909Z,100.00
2022-07-25T02:14:05.744Z,100.00
2022-07-25T02:16:35.487Z,100.00
2022-07-25T02:19:05.010Z,100.00
2022-07-25T02:21:34.391Z,100.00
2022-07-25T02:24:04.060Z,100.00
2022-07-25T02:26:33.482Z,100.00
2022-07-25T02:29:02.614Z,100.00
2022-07-25T02:31:31.759Z,100.00
2022-07-25T02:34:04.101Z,100.00
2022-07-25T02:36:33.940Z,100.00
2022-07-25T02:39:03.991Z,100.00
2022-07-25T02:41:35.976Z,100.00
2022-07-25T02:44:06.267Z,100.00
2022-07-25T02:46:35.695Z,100.00
2022-07-25T02:49:05.045Z,100.00
2022-07-25T02:51:34.331Z,100.00
2022-07-25T02:54:03.456Z,100.00
2022-07-25T02:56:34.057Z,100.00
2022-07-25T02:59:03.284Z,100.00
2022-07-25T03:01:32.591Z,100.00
2022-07-25T03:04:01.756Z,100.00
2022-07-25T03:06:30.916Z,100.00
2022-07-25T03:09:00.123Z,100.00
2022-07-25T03:11:29.135Z,100.00
2022-07-25T03:13:58.770Z,100.00
2022-07-25T03:16:28.987Z,100.00
2022-07-25T03:18:58.139Z,100.00
2022-07-25T03:21:27.191Z,100.00
2022-07-25T03:23:56.490Z,100.00
2022-07-25T03:26:25.560Z,100.00
2022-07-25T03:28:54.638Z,100.00
2022-07-25T03:31:23.942Z,100.00
2022-07-25T03:33:53.066Z,100.00
2022-07-25T03:36:22.443Z,100.00
2022-07-25T03:38:51.790Z,100.00
2022-07-25T03:41:20.810Z,100.00
2022-07-25T03:43:50.140Z,100.00
2022-07-25T03:46:19.242Z,100.00
2022-07-25T03:48:48.516Z,100.00
2022-07-25T03:51:17.591Z,100.00
2022-07-25T03:54:05.782Z,100.00
2022-07-25T03:56:46.120Z,100.00
2022-07-25T03:59:18.388Z,100.00
2022-07-25T04:01:49.915Z,100.00
2022-07-25T04:04:20.458Z,100.00
2022-07-25T04:06:49.754Z,100.00
2022-07-25T04:09:18.896Z,100.00
2022-07-25T04:11:48.600Z,100.00
2022-07-25T04:14:17.777Z,100.00
2022-07-25T04:16:46.892Z,100.00
2022-07-25T04:19:16.359Z,100.00
2022-07-25T04:21:46.226Z,100.00
2022-07-25T04:24:15.293Z,100.00
2022-07-25T04:26:44.375Z,100.00
2022-07-25T04:29:13.477Z,100.00
2022-07-25T04:31:42.788Z,100.00
2022-07-25T04:34:11.984Z,100.00
2022-07-25T04:36:41.087Z,100.00
2022-07-25T04:39:10.412Z,100.00
2022-07-25T04:41:39.708Z,100.00
2022-07-25T04:44:09.615Z,100.00
2022-07-25T04:46:39.627Z,100.00
2022-07-25T04:49:08.745Z,100.00
2022-07-25T04:51:38.007Z,100.00
2022-07-25T04:54:07.719Z,100.00
2022-07-25T04:56:37.337Z,100.00
2022-07-25T04:59:06.957Z,100.00
2022-07-25T05:01:37.035Z,100.00
2022-07-25T05:04:06.482Z,100.00
2022-07-25T05:06:35.694Z,100.00
2022-07-25T05:09:05.042Z,100.00
2022-07-25T05:11:34.343Z,100.00
2022-07-25T05:14:04.341Z,100.00
2022-07-25T05:16:33.845Z,100.00
2022-07-25T05:19:02.976Z,100.00
2022-07-25T05:21:32.046Z,100.00
2022-07-25T05:24:01.576Z,100.00
2022-07-25T05:26:30.630Z,100.00
2022-07-25T05:28:59.684Z,100.00
2022-07-25T05:31:28.735Z,100.00
2022-07-25T05:33:57.951Z,100.00
2022-07-25T05:36:28.080Z,100.00
2022-07-25T05:38:57.089Z,100.00
2022-07-25T05:41:26.950Z,100.00
2022-07-25T05:43:55.994Z,100.00
2022-07-25T05:46:25.665Z,100.00
2022-07-25T05:48:55.726Z,100.00
2022-07-25T05:51:27.559Z,100.00
2022-07-25T05:53:56.886Z,100.00
2022-07-25T05:56:26.094Z,100.00
2022-07-25T05:58:55.087Z,100.00
2022-07-25T06:01:24.472Z,100.00
2022-07-25T06:03:53.646Z,100.00
2022-07-25T06:06:22.832Z,100.00
2022-07-25T06:08:51.995Z,100.00
2022-07-25T06:11:23.341Z,100.00
2022-07-25T06:13:55.513Z,100.00
2022-07-25T06:16:24.745Z,100.00
2022-07-25T06:18:53.955Z,100.00
2022-07-25T06:21:23.115Z,100.00
2022-07-25T06:23:52.239Z,100.00
2022-07-25T06:26:24.962Z,100.00
2022-07-25T06:28:54.412Z,100.00
2022-07-25T06:31:23.558Z,100.00
2022-07-25T06:33:52.661Z,100.00
2022-07-25T06:36:21.656Z,100.00
2022-07-25T06:39:02.114Z,100.00
2022-07-25T06:41:31.640Z,100.00
2022-07-25T06:44:00.714Z,100.00
2022-07-25T06:46:32.315Z,100.00
2022-07-25T06:49:01.579Z,100.00
2022-07-25T06:51:30.734Z,100.00
2022-07-25T06:54:00.327Z,100.00
2022-07-25T06:56:32.328Z,100.00
2022-07-25T06:59:02.312Z,100.00
2022-07-25T07:01:31.488Z,100.00
2022-07-25T07:04:00.592Z,100.00
2022-07-25T07:06:29.957Z,100.00
2022-07-25T07:08:59.084Z,100.00
2022-07-25T07:11:28.091Z,100.00
2022-07-25T07:13:57.219Z,100.00
2022-07-25T07:16:26.484Z,100.00
2022-07-25T07:18:55.724Z,100.00
2022-07-25T07:21:25.315Z,100.00
2022-07-25T07:23:55.251Z,100.00
2022-07-25T07:26:26.156Z,100.00
2022-07-25T07:28:56.812Z,100.00
2022-07-25T07:31:25.956Z,100.00
2022-07-25T07:33:55.161Z,100.00
2022-07-25T07:36:24.251Z,100.00
2022-07-25T07:38:53.840Z,100.00
2022-07-25T07:41:23.158Z,100.00
2022-07-25T07:43:52.710Z,100.00
2022-07-25T07:46:21.752Z,100.00
2022-07-25T07:48:51.055Z,100.00
2022-07-25T07:51:20.198Z,100.00
2022-07-25T07:54:07.759Z,100.00
2022-07-25T07:56:36.916Z,100.00
2022-07-25T07:59:06.267Z,100.00
2022-07-25T08:01:36.229Z,100.00
2022-07-25T08:04:05.482Z,100.00
2022-07-25T08:06:34.616Z,100.00
2022-07-25T08:09:04.060Z,100.00
2022-07-25T08:11:33.463Z,100.00
2022-07-25T08:14:02.735Z,100.00
2022-07-25T08:16:32.078Z,100.00
2022-07-25T08:19:01.330Z,100.00
2022-07-25T08:21:30.367Z,100.00
2022-07-25T08:23:59.450Z,100.00
2022-07-25T08:26:28.792Z,100.00
2022-07-25T08:29:17.605Z,100.00
2022-07-25T08:31:47.546Z,100.00
2022-07-25T08:34:16.798Z,100.00
2022-07-25T08:36:45.897Z,100.00
2022-07-25T08:39:15.594Z,100.00
2022-07-25T08:41:44.703Z,100.00
2022-07-25T08:44:15.604Z,100.00
2022-07-25T08:46:45.964Z,100.00
2022-07-25T08:49:15.220Z,100.00
2022-07-25T08:51:44.486Z,100.00
2022-07-25T08:54:14.122Z,100.00
2022-07-25T08:56:43.290Z,100.00
2022-07-25T08:59:12.400Z,100.00
2022-07-25T09:01:42.288Z,100.00
2022-07-25T09:04:11.582Z,100.00
2022-07-25T09:06:51.369Z,100.00
2022-07-25T09:09:20.614Z,100.00
2022-07-25T09:11:51.354Z,100.00
2022-07-25T09:14:20.473Z,100.00
2022-07-25T09:16:49.474Z,100.00
2022-07-25T09:19:21.433Z,100.00
2022-07-25T09:22:10.269Z,100.00
2022-07-25T09:24:46.788Z,100.00
2022-07-25T09:27:16.462Z,100.00
2022-07-25T09:29:46.358Z,100.00
2022-07-25T09:32:22.197Z,100.00
2022-07-25T09:34:52.007Z,100.00
2022-07-25T09:37:27.918Z,100.00
2022-07-25T09:39:57.057Z,100.00
2022-07-25T09:42:29.094Z,100.00
2022-07-25T09:45:01.413Z,100.00
2022-07-25T09:47:32.003Z,100.00
2022-07-25T09:50:01.223Z,100.00
2022-07-25T09:52:30.265Z,100.00
2022-07-25T09:54:59.597Z,100.00
2022-07-25T09:57:29.038Z,100.00
2022-07-25T10:00:01.655Z,100.00
2022-07-25T10:03:17.814Z,100.00
2022-07-25T10:05:52.641Z,100.00
2022-07-25T10:08:23.636Z,100.00
2022-07-25T10:10:52.940Z,100.00
2022-07-25T10:13:39.973Z,100.00
2022-07-25T10:16:15.939Z,100.00
2022-07-25T10:18:56.083Z,100.00
2022-07-25T10:21:28.297Z,100.00
2022-07-25T10:24:09.516Z,100.00
2022-07-25T10:26:41.568Z,100.00
2022-07-25T10:29:12.224Z,100.00
2022-07-25T10:31:51.011Z,100.00
2022-07-25T10:34:34.210Z,100.00
2022-07-25T10:37:13.794Z,100.00
2022-07-25T10:39:47.678Z,100.00
2022-07-25T10:42:21.654Z,100.00
2022-07-25T10:45:06.179Z,100.00
2022-07-25T10:47:43.780Z,100.00
2022-07-25T10:50:25.475Z,100.00
2022-07-25T10:53:08.630Z,100.00
2022-07-25T10:55:38.841Z,100.00
2022-07-25T10:58:17.615Z,100.00
2022-07-25T11:00:47.432Z,100.00
2022-07-25T11:03:18.561Z,100.00
2022-07-25T11:05:49.111Z,100.00
2022-07-25T11:08:22.655Z,100.00
2022-07-25T11:10:54.126Z,100.00
2022-07-25T11:13:23.466Z,100.00
2022-07-25T11:15:52.796Z,100.00
2022-07-25T11:18:34.835Z,100.00
2022-07-25T11:21:06.619Z,100.00
2022-07-25T11:23:37.489Z,100.00
2022-07-25T11:26:14.136Z,100.00
2022-07-25T11:28:46.593Z,100.00
2022-07-25T11:31:17.280Z,100.00
2022-07-25T11:33:49.095Z,100.00
2022-07-25T11:36:18.717Z,100.00
2022-07-25T11:38:51.446Z,100.00
2022-07-25T11:41:30.851Z,100.00
2022-07-25T11:43:59.937Z,100.00
2022-07-25T11:46:29.030Z,100.00
2022-07-25T11:49:07.093Z,100.00
2022-07-25T11:51:40.514Z,100.00
2022-07-25T11:54:14.158Z,100.00
2022-07-25T11:56:45.779Z,100.00
2022-07-25T11:59:15.374Z,100.00
2022-07-25T12:01:46.171Z,100.00
2022-07-25T12:04:20.452Z,100.00
2022-07-25T12:06:51.641Z,100.00
2022-07-25T12:09:22.337Z,100.00
2022-07-25T12:11:51.492Z,100.00
2022-07-25T12:14:20.536Z,100.00
2022-07-25T12:16:49.660Z,100.00
2022-07-25T12:19:23.346Z,100.00
2022-07-25T12:21:52.478Z,100.00
2022-07-25T12:24:21.444Z,100.00
2022-07-25T12:26:50.514Z,100.00
2022-07-25T12:29:19.482Z,100.00
2022-07-25T12:31:48.571Z,100.00
2022-07-25T12:34:17.811Z,100.00
2022-07-25T12:36:47.007Z,100.00
2022-07-25T12:39:16.263Z,100.00
2022-07-25T12:41:45.387Z,100.00
2022-07-25T12:44:14.381Z,100.00
2022-07-25T12:46:48.933Z,100.00
2022-07-25T12:49:18.971Z,100.00
2022-07-25T12:51:48.157Z,100.00
2022-07-25T12:54:22.293Z,100.00
2022-07-25T12:56:52.384Z,100.00
2022-07-25T12:59:21.707Z,100.00
2022-07-25T13:01:50.964Z,100.00
2022-07-25T13:04:20.241Z,100.00
2022-07-25T13:06:49.307Z,100.00
2022-07-25T13:09:18.618Z,100.00
2022-07-25T13:11:47.713Z,100.00
2022-07-25T13:14:19.847Z,100.00
2022-07-25T13:16:49.937Z,100.00
2022-07-25T13:19:19.744Z,100.00
2022-07-25T13:21:48.817Z,100.00
2022-07-25T13:24:18.027Z,100.00
2022-07-25T13:26:47.148Z,100.00
2022-07-25T13:29:16.132Z,100.00
2022-07-25T13:31:48.663Z,100.00
2022-07-25T13:34:18.127Z,100.00
2022-07-25T13:36:48.745Z,100.00
2022-07-25T13:39:18.088Z,100.00
2022-07-25T13:41:47.087Z,100.00
2022-07-25T13:44:16.466Z,100.00
2022-07-25T13:46:46.456Z,100.00
2022-07-25T13:49:15.829Z,100.00
2022-07-25T13:51:46.363Z,100.00
2022-07-25T13:54:15.496Z,100.00
2022-07-25T13:56:44.586Z,100.00
2022-07-25T13:59:20.554Z,100.00
2022-07-25T14:01:51.455Z,100.00
2022-07-25T14:04:20.624Z,100.00
2022-07-25T14:06:52.858Z,100.00
2022-07-25T14:09:22.624Z,100.00
2022-07-25T14:11:51.704Z,100.00
2022-07-25T14:14:20.955Z,100.00
2022-07-25T14:16:50.145Z,100.00
2022-07-25T14:19:19.412Z,100.00
2022-07-25T14:21:48.597Z,100.00
2022-07-25T14:24:17.650Z,100.00
2022-07-25T14:26:46.637Z,100.00
2022-07-25T14:29:15.837Z,100.00
2022-07-25T14:31:44.979Z,100.00
2022-07-25T14:34:16.564Z,100.00
2022-07-25T14:36:48.331Z,100.00
2022-07-25T14:39:17.621Z,100.00
2022-07-25T14:41:46.717Z,100.00
2022-07-25T14:44:15.905Z,100.00
2022-07-25T14:46:45.372Z,100.00
2022-07-25T14:49:18.503Z,100.00
2022-07-25T14:51:48.150Z,100.00
2022-07-25T14:54:20.432Z,100.00
2022-07-25T14:56:49.590Z,100.00
2022-07-25T14:59:18.650Z,100.00
2022-07-25T15:01:47.817Z,100.00
2022-07-25T15:04:20.589Z,100.00
2022-07-25T15:06:50.111Z,100.00
2022-07-25T15:09:20.266Z,100.00
2022-07-25T15:11:50.149Z,100.00
2022-07-25T15:14:20.058Z,100.00
2022-07-25T15:16:49.242Z,100.00
2022-07-25T15:19:19.353Z,100.00
2022-07-25T15:21:48.869Z,100.00
2022-07-25T15:24:17.851Z,100.00
2022-07-25T15:26:47.210Z,100.00
2022-07-25T15:29:21.252Z,100.00
2022-07-25T15:31:51.269Z,100.00
2022-07-25T15:34:20.478Z,100.00
2022-07-25T15:36:49.482Z,100.00
2022-07-25T15:39:20.358Z,100.00
2022-07-25T15:41:49.459Z,100.00
2022-07-25T15:44:18.454Z,100.00
2022-07-25T15:46:47.813Z,100.00
2022-07-25T15:49:16.913Z,100.00
2022-07-25T15:51:46.103Z,100.00
2022-07-25T15:54:15.438Z,100.00
2022-07-25T15:56:44.737Z,100.00
2022-07-25T15:59:14.449Z,100.00
2022-07-25T16:01:44.314Z,100.00
2022-07-25T16:04:13.555Z,100.00
2022-07-25T16:06:42.659Z,100.00
2022-07-25T16:09:13.233Z,100.00
2022-07-25T16:11:42.377Z,100.00
2022-07-25T16:14:12.155Z,100.00
2022-07-25T16:16:41.506Z,100.00
2022-07-25T16:19:11.020Z,100.00
2022-07-25T16:21:40.859Z,100.00
2022-07-25T16:24:11.826Z,100.00
2022-07-25T16:26:41.028Z,100.00
2022-07-25T16:29:10.194Z,100.00
2022-07-25T16:31:39.629Z,100.00
2022-07-25T16:34:08.652Z,100.00
2022-07-25T16:36:38.069Z,100.00
2022-07-25T16:39:07.533Z,100.00
2022-07-25T16:41:37.131Z,100.00
2022-07-25T16:44:06.554Z,100.00
2022-07-25T16:46:35.700Z,100.00
2022-07-25T16:49:05.209Z,100.00
2022-07-25T16:51:37.177Z,100.00
2022-07-25T16:54:06.607Z,100.00
2022-07-25T16:56:37.430Z,100.00
2022-07-25T16:59:07.904Z,100.00
2022-07-25T17:01:37.586Z,100.00
2022-07-25T17:04:06.778Z,100.00
2022-07-25T17:06:36.056Z,100.00
2022-07-25T17:09:06.012Z,100.00
2022-07-25T17:11:38.227Z,100.00
2022-07-25T17:14:07.362Z,100.00
2022-07-25T17:16:36.542Z,100.00
2022-07-25T17:19:05.990Z,100.00
2022-07-25T17:21:35.277Z,100.00
2022-07-25T17:24:04.396Z,100.00
2022-07-25T17:26:33.778Z,100.00
2022-07-25T17:29:03.006Z,100.00
2022-07-25T17:31:32.229Z,100.00
2022-07-25T17:34:01.439Z,100.00
2022-07-25T17:36:30.562Z,100.00
2022-07-25T17:38:59.574Z,100.00
2022-07-25T17:41:28.736Z,100.00
2022-07-25T17:43:57.694Z,100.00
2022-07-25T17:46:26.808Z,100.00
2022-07-25T17:48:56.576Z,100.00
2022-07-25T17:51:26.729Z,100.00
2022-07-25T17:53:55.808Z,100.00
2022-07-25T17:56:24.878Z,100.00
2022-07-25T17:58:54.394Z,100.00
2022-07-25T18:01:23.499Z,100.00
2022-07-25T18:03:52.778Z,100.00
2022-07-25T18:06:23.945Z,100.00
2022-07-25T18:08:57.065Z,100.00
2022-07-25T18:11:26.105Z,100.00
2022-07-25T18:13:55.234Z,100.00
2022-07-25T18:16:24.334Z,100.00
2022-07-25T18:18:53.659Z,100.00
2022-07-25T18:21:23.053Z,100.00
2022-07-25T18:23:52.995Z,100.00
2022-07-25T18:26:22.758Z,100.00
2022-07-25T18:28:51.772Z,100.00
2022-07-25T18:31:20.853Z,100.00
2022-07-25T18:33:50.677Z,100.00
2022-07-25T18:36:19.755Z,100.00
2022-07-25T18:38:48.798Z,100.00
2022-07-25T18:41:29.201Z,100.00
2022-07-25T18:43:59.234Z,100.00
2022-07-25T18:46:31.991Z,100.00
2022-07-25T18:49:02.199Z,100.00
2022-07-25T18:51:31.360Z,100.00
2022-07-25T18:54:00.418Z,100.00
2022-07-25T18:56:29.623Z,100.00
2022-07-25T18:58:59.180Z,100.00
2022-07-25T19:01:29.214Z,100.00
2022-07-25T19:03:58.557Z,100.00
2022-07-25T19:06:27.598Z,100.00
2022-07-25T19:08:56.701Z,100.00
2022-07-25T19:11:26.886Z,100.00
2022-07-25T19:13:56.025Z,100.00
2022-07-25T19:16:26.876Z,100.00
2022-07-25T19:18:56.200Z,100.00
2022-07-25T19:21:25.246Z,100.00
2022-07-25T19:23:54.429Z,100.00
2022-07-25T19:26:23.537Z,100.00
2022-07-25T19:28:52.788Z,100.00
2022-07-25T19:31:21.909Z,100.00
2022-07-25T19:33:51.438Z,100.00
2022-07-25T19:36:20.629Z,100.00
2022-07-25T19:38:49.962Z,100.00
2022-07-25T19:41:20.204Z,100.00
2022-07-25T19:43:49.306Z,100.00
2022-07-25T19:46:18.465Z,100.00
2022-07-25T19:48:47.671Z,100.00
2022-07-25T19:51:16.734Z,100.00
2022-07-25T19:53:45.888Z,100.00
2022-07-25T19:56:14.990Z,100.00
2022-07-25T19:58:44.045Z,100.00
2022-07-25T20:01:14.594Z,100.00
2022-07-25T20:03:43.971Z,94.47
2022-07-25T20:06:13.135Z,99.75
2022-07-25T20:08:43.693Z,94.51
2022-07-25T20:11:12.734Z,96.79
2022-07-25T20:13:41.997Z,93.68
2022-07-25T20:16:12.697Z,90.98
2022-07-25T20:18:41.748Z,94.55
2022-07-25T20:21:12.795Z,89.78
2022-07-25T20:23:41.906Z,93.98
2022-07-25T20:26:10.921Z,89.83
2022-07-25T20:28:40.204Z,87.35
2022-07-25T20:31:09.338Z,87.69
2022-07-25T20:33:38.548Z,81.81
2022-07-25T20:36:07.944Z,83.14
2022-07-25T20:38:37.429Z,75.97
2022-07-25T20:41:07.777Z,78.62
2022-07-25T20:43:38.839Z,81.82
2022-07-25T20:46:09.614Z,76.00
2022-07-25T20:48:38.963Z,79.62
2022-07-25T20:51:08.447Z,76.48
2022-07-25T20:53:37.434Z,70.55
2022-07-25T20:56:06.773Z,70.23
2022-07-25T20:58:35.819Z,77.71
2022-07-25T21:01:05.087Z,75.38
2022-07-25T21:03:36.843Z,74.41
2022-07-25T21:06:06.021Z,77.76
2022-07-25T21:08:35.074Z,75.11
2022-07-25T21:11:05.720Z,74.81
2022-07-25T21:13:34.917Z,74.85
2022-07-25T21:16:04.282Z,72.27
2022-07-25T21:18:33.317Z,72.15
2022-07-25T21:21:04.008Z,72.57
2022-07-25T21:23:34.983Z,71.53
2022-07-25T21:26:04.206Z,70.82
2022-07-25T21:28:33.242Z,70.04
2022-07-25T21:31:03.471Z,68.61
2022-07-25T21:33:32.494Z,68.13
2022-07-25T21:36:01.678Z,67.72
2022-07-25T21:38:34.760Z,68.30
2022-07-25T21:41:04.521Z,67.99
2022-07-25T21:43:33.708Z,64.20
2022-07-25T21:46:03.111Z,65.54
2022-07-25T21:48:50.666Z,64.50
2022-07-25T21:51:23.635Z,67.63
2022-07-25T21:53:54.250Z,73.08
2022-07-25T21:56:23.332Z,68.69
2022-07-25T21:58:52.429Z,66.98
2022-07-25T22:01:22.056Z,64.59
2022-07-25T22:03:53.743Z,66.75
2022-07-25T22:06:23.186Z,66.01
2022-07-25T22:08:52.308Z,63.07
2022-07-25T22:11:43.007Z,65.42
2022-07-25T22:14:10.876Z,69.32
2022-07-25T22:16:40.418Z,63.82
2022-07-25T22:19:09.863Z,68.71
2022-07-25T22:21:41.394Z,67.34
2022-07-25T22:24:11.636Z,66.04
2022-07-25T22:26:40.829Z,64.59
2022-07-25T22:29:10.298Z,62.58
2022-07-25T22:31:39.961Z,63.33
2022-07-25T22:34:09.271Z,63.45
2022-07-25T22:36:38.261Z,63.75
2022-07-25T22:39:07.765Z,61.27
2022-07-25T22:41:37.390Z,61.87
2022-07-25T22:44:06.664Z,67.50
2022-07-25T22:46:36.235Z,64.31
2022-07-25T22:49:06.504Z,65.97
2022-07-25T22:51:36.050Z,68.83
2022-07-25T22:54:07.497Z,68.14
2022-07-25T22:56:36.568Z,67.76
2022-07-25T22:59:05.705Z,71.11
2022-07-25T23:01:35.107Z,69.55
2022-07-25T23:04:04.795Z,67.75
2022-07-25T23:06:33.916Z,70.30
2022-07-25T23:09:03.038Z,68.87
2022-07-25T23:11:32.299Z,71.46
2022-07-25T23:14:01.362Z,69.60
2022-07-25T23:16:33.328Z,68.15
2022-07-25T23:19:02.467Z,68.14
2022-07-25T23:21:31.545Z,68.63
2022-07-25T23:24:00.961Z,66.34
2022-07-25T23:26:30.215Z,67.29
2022-07-25T23:28:59.290Z,66.27
2022-07-25T23:31:28.490Z,65.06
2022-07-25T23:33:57.693Z,66.66
2022-07-25T23:36:26.734Z,65.12
2022-07-25T23:38:55.720Z,63.41
2022-07-25T23:41:24.793Z,64.32
2022-07-25T23:43:57.319Z,62.05
2022-07-25T23:46:30.910Z,61.50
2022-07-25T23:49:01.170Z,63.26
2022-07-25T23:51:30.492Z,63.83
2022-07-25T23:54:00.497Z,64.09
2022-07-25T23:56:29.626Z,61.22
2022-07-25T23:58:58.909Z,63.72
